Terminal Aerodrome Forecast
Issued by NWS

Home | Current Version | Previous Version | Text Only | Print | Product List | Glossary On
Versions: 1 2 3 4 5 6 7 8 9 10 11 12 13 14 15 16 17 18 19 20 21 22 23
000
FTUS46 KSEW 281400 AAA
TAFSEA
TAF AMD
KSEA 281401Z 2814/2918 05008KT P6SM -RA FEW013 BKN028 OVC035
      TEMPO 2814/2818 BKN013 OVC028
     FM282200 03008KT P6SM VCSH BKN025 OVC040
     FM290800 04010KT P6SM SCT030 BKN060
     FM291500 03012KT P6SM SCT080 BKN250=

USA.gov is the U.S. government's official web portal to all federal, state and local government web resources and services.